Terminal Aerodrome Forecast
Issued by NWS Norman, OK

Home | Current Version | Previous Version | Text Only | Print | Product List | Glossary On
Versions: 1 2 3 4 5 6 7 8 9 10 11 12 13 14 15 16 17 18 19 20 21
000
FTUS44 KOUN 280537
TAFOKC
TAF
KOKC 280537Z 2806/2906 34007KT P6SM FEW120 BKN250
     FM281300 VRB03KT P6SM SKC
     FM282000 18009KT P6SM SKC
     FM290000 14007KT P6SM SCT250=

USA.gov is the U.S. government's official web portal to all federal, state and local government web resources and services.